Terminal Aerodrome Forecast
Issued by NWS Quad Cities IA IL

Home | Current Version | Previous Version | Text Only | Print | Product List | Glossary On
Versions: 1 2 3 4 5 6 7 8 9 10 11 12 13 14 15 16 17 18 19 20 21 22 23 24 25
000
FTUS43 KDVN 300153 AAA
TAFMLI
TAF AMD
KMLI 300153Z 3002/3024 27004KT 4SM -TSRA BKN040CB
      TEMPO 3002/3004 VRB20G35KT 2SM TSRA OVC025CB
     FM300400 VRB03KT P6SM BKN040
     FM300600 27004KT 5SM BR SCT040
      TEMPO 3008/3012 2SM BR
     FM301400 32008KT P6SM SCT050=

USA.gov is the U.S. government's official web portal to all federal, state and local government web resources and services.